Colmenar de Oreja, Spain
Current Conditions -  °F | °C
As of 12:00 PM on Tuesday 21 Oct 2014 (Local Time) from LEGT Reporting Station
Clear Clear  
Wind Chill: 70°   Ceiling: Unl
Heat Index: 70°   Visibility: 6mi
Dew Point: 52°   Wind: 2mph
Humidity: 53%   Direction: 120°ESE
Pressure: 30.36"   Gusts: NA
Location:  40.11°N, 3.39°W
Report Text: LEGT 211000Z 12002KT CAVOK 21/11 Q1028
Loading
Personal Weather Stations






























Interactive Weather Map
Tropical Storm Tracking
New forecast layout! Learn more

10-Day Weather Forecast

Advertisements
Track Severe Weather on mobile